Jannik Cornelius

Chefscout - FC Midtjylland
4 Apr 2027
Sonntag
Verarbeitung

Persönlichkeit

Anpassungsfähigkeit (17) Ehrgeiz (4) Kontroverse (19) Loyalität (7) Druck (5) Professionalität (20) Fairness (1) Temperament (6)

Profil

Trainerstil Demokratisch
Lizenz Kontinentale B
Entschlossenheit 14
Menschenführung 10
Motivation 6
Disziplin 7
Arbeitszufriedenheit
60%
Ermüdung
0%
Rolle Chefscout
Gehalt 59.1K p/W
Vertrag 14.03.2030

Leistung

Verhalten Gut
Trainingseffektivität
20%
Spielerentwicklung
30%
Verletzungsprävention
60%
Taktische Umsetzung
35%

Letzte Ereignisse

Spieler begutachtet jetzt
Nahm an einer Scouting-Besprechung teil jetzt
Empfahl ein Transferziel jetzt
Spieler begutachtet jetzt
Spieler begutachtet 7T her
Spieler begutachtet 7T her
Spieler begutachtet 7T her
Spieler begutachtet 7T her

Aktuell beobachtet

152
Spieler Verein Status Fähigkeit Vertrauen Beobachtet Zuletzt beobachtet Letzte Stimme
Mehdi Hashemnejad Tractor Aktiv 105 / 117 40% 3 02.04.2027 -
Haissem Hassan Bloemfontein Celtic Aktiv 149 / 145 40% 6 02.04.2027 -
Camilo Durán Bloemfontein Celtic Aktiv 118 / 106 40% 3 01.04.2027 -
Marquinhos Spartak Moscow Aktiv 131 / 141 40% 5 01.04.2027 -
Matthew Targett Hull City Aktiv 145 / 132 40% 3 29.03.2027 -
Soufiane Rahimi Al Ain Aktiv 132 / 133 40% 2 29.03.2027 -
Axel Openda KV Oostende Aktiv 120 / 118 40% 7 28.03.2027 -
Joe Aribo Southampton Aktiv 135 / 110 40% 2 27.03.2027 -
Tatsuhiro Sakamoto Coventry City Aktiv 114 / 113 40% 1 27.03.2027 -
Fashion Sakala Al-Fayha Aktiv 119 / 130 40% 6 26.03.2027 -
Andrew Moran Preston Aktiv 131 / 119 40% 3 26.03.2027 -
Rumarn Burrell Queens Park Rangers Aktiv 114 / 134 40% 1 26.03.2027 -
Lukáš Provod Slavia Prague Aktiv 137 / 137 40% 2 24.03.2027 -
Mohammad Mehdi Mohebi Persepolis Aktiv 108 / 123 40% 2 24.03.2027 -
José Paradela Cruz Azul Aktiv 154 / 153 40% 2 23.03.2027 -
Bryan Cristante AS Roma Aktiv 150 / 145 40% 1 23.03.2027 -
Leandro Andrade Polissia Aktiv 135 / 133 40% 12 22.03.2027 -
Jason Al-Fayha Aktiv 137 / 112 40% 4 22.03.2027 -
Facundo Torres Shakhtar Aktiv 145 / 133 40% 3 19.03.2027 -
Emmanuel Boateng Hapoel Tel Aviv Aktiv 123 / 124 40% 1 18.03.2027 -
Ibrahim Tarek Masr El Makasa Aktiv 130 / 124 40% 7 17.03.2027 -
Achraf Bencharki Al Ahly Aktiv 131 / 139 40% 5 17.03.2027 -
Akinkunmi Amoo Ismaily Aktiv 107 / 114 40% 8 16.03.2027 -
Salah Mohsen El Masry Aktiv 110 / 130 40% 2 16.03.2027 -
Dan Biton Hapoel Beer Sheva Aktiv 139 / 136 40% 2 15.03.2027 -
Oston O'runov Persepolis Aktiv 123 / 107 40% 2 12.03.2027 -
Marko Farji Venezia Aktiv 114 / 109 40% 1 12.03.2027 -
Percy Erasmus SuperSport United Aktiv 143 / 136 40% 3 10.03.2027 -
Zeidane Inoussa Swansea City Aktiv 131 / 118 40% 1 10.03.2027 -
Afimico Pululu Al-Hazem Aktiv 132 / 115 40% 6 08.03.2027 -
Daniel Kyerewaa Reading Aktiv 110 / 115 40% 3 08.03.2027 -
Siyanda Ndlovu Hearts of Oak Aktiv 130 / 127 40% 4 08.03.2027 -
Iqraam Rayners Mamelodi Sundowns Aktiv 125 / 119 40% 3 04.03.2027 -
Teboho Williams SuperSport United Aktiv 111 / 105 40% 7 01.03.2027 -
Domenico Berardi Sassuolo Aktiv 157 / 154 40% 1 01.03.2027 -
Juan Bezerra Zamalek Aktiv 129 / 135 40% 2 28.02.2027 -
Stanley Mills Oxford United Aktiv 127 / 121 40% 1 27.02.2027 -
Timi Max Elšnik Crvena Zvezda Aktiv 140 / 138 40% 3 26.02.2027 -
Nemanja Radonjić Crvena Zvezda Aktiv 137 / 128 40% 2 25.02.2027 -
Santiago Luján Al Ain Aktiv 131 / 109 40% 2 25.02.2027 -
Zizo Al Ahly Aktiv 144 / 125 40% 2 22.02.2027 -
Keagan Mothiba SuperSport United Aktiv 106 / 112 40% 3 21.02.2027 -
Mathias Jørgensen Blackburn Rovers Aktiv 132 / 126 40% 1 20.02.2027 -
Peter Federico Gornik Zabrze Aktiv 126 / 131 40% 1 20.02.2027 -
Alex Robertson Cardiff City Aktiv 135 / 113 40% 1 18.02.2027 -
Derensili Sanches Fernandes Huddersfield Town Aktiv 121 / 134 40% 1 17.02.2027 -
Nazar Voloshyn Dynamo Kyiv Aktiv 135 / 118 40% 1 17.02.2027 -
Petar Stanić Ludogorets Aktiv 130 / 128 40% 1 17.02.2027 -
Ali Soliman Masr El Makasa Aktiv 127 / 128 40% 5 16.02.2027 -
Itumeleng Tau Ajax Cape Town Aktiv 104 / 102 40% 3 12.02.2027 -
Tomáš Ladra Viktoria Plzen Aktiv 125 / 121 40% 1 12.02.2027 -
Mfundo Vilakazi Kaizer Chiefs Aktiv 114 / 108 40% 2 11.02.2027 -
Felipe Augusto Zenit Aktiv 138 / 137 40% 1 11.02.2027 -
Armstrong Oko-Flex Levski Aktiv 118 / 122 40% 1 11.02.2027 -
Marouan Azarkan Al Nasr Aktiv 135 / 126 40% 1 11.02.2027 -
Hidemasa Morita Hull City Aktiv 158 / 141 40% 1 10.02.2027 -
Patrick Maswanganyi Orlando Pirates Aktiv 114 / 109 40% 6 07.02.2027 -
Domagoj Drožđek Tractor Aktiv 122 / 133 40% 2 06.02.2027 -
Cian Ashford Cardiff City Aktiv 113 / 128 40% 3 05.02.2027 -
John Okoye Ebuka Ittihad Aktiv 106 / 114 40% 1 04.02.2027 -
Tyreece Campbell Charlton Athletic Aktiv 132 / 128 40% 1 04.02.2027 -
Ilija Babić Spartak Subotica Aktiv 97 / 112 40% 1 04.02.2027 -
Oswin Appollis Orlando Pirates Aktiv 124 / 110 40% 3 02.02.2027 -
Jack Diamond Stockport County Aktiv 132 / 122 40% 2 02.02.2027 -
Sayfallah Ltaief Cracovia Aktiv 127 / 118 40% 1 02.02.2027 -
Theo Bongonda Al-Faisaly Aktiv 133 / 134 40% 1 26.01.2027 -
Gerónimo Rivera Al Wahda Aktiv 117 / 127 40% 2 25.01.2027 -
Jens Jønsson AGF Aktiv 115 / 118 62% 1 25.01.2027 Befürworten
Lukáš Červ Viktoria Plzen Aktiv 131 / 131 40% 1 24.01.2027 -
Mehdi Ghayedi Al Nasr Aktiv 115 / 110 40% 2 23.01.2027 -
Ryan Hedges Derby County Aktiv 115 / 125 40% 1 23.01.2027 -
Serginho Al Wasl Aktiv 120 / 136 40% 3 21.01.2027 -
Allahyar Sayyadmanesh Lech Aktiv 118 / 115 40% 1 20.01.2027 -
Robert FC Copenhagen Aktiv 119 / 136 40% 4 19.01.2027 -
Diego Valencia Gornik Leczna Aktiv 117 / 101 40% 1 19.01.2027 -
Arthur Gomes Dinamo Moscow Aktiv 133 / 121 40% 1 19.01.2027 -
Emmanuel Dennis Brondby Aktiv 123 / 128 40% 1 18.01.2027 -
Bernard Tekpetey Ludogorets Aktiv 125 / 127 40% 1 15.01.2027 -
Rodrigo Huescas FC Copenhagen Aktiv 139 / 130 40% 6 09.01.2027 -
Stav Toriel Hapoel Tel Aviv Aktiv 121 / 135 40% 1 09.01.2027 -
Sergey Pinyaev Lokomotiv Moscow Aktiv 118 / 119 40% 1 08.01.2027 -
Mduduzi Shabalala Kaizer Chiefs Aktiv 98 / 114 40% 3 07.01.2027 -
Angelo Gattermayer Wolfsberger AC Aktiv 128 / 106 40% 2 06.01.2027 -
Lebohang Maboe Kaizer Chiefs Aktiv 118 / 111 40% 3 30.12.2026 -
Mikael Anderson AGF Aktiv 116 / 128 40% 4 29.12.2026 -
Relebohile Mofokeng Orlando Pirates Aktiv 107 / 114 40% 2 29.12.2026 -
Ola Solbakken FC Nordsjaelland Aktiv 137 / 114 40% 2 25.12.2026 -
Thapelo Maseko FC Copenhagen Aktiv 120 / 108 40% 4 22.12.2026 -
Marco Pineda VfB Stuttgart Abgelehnt 158 / 140 40% 4 20.12.2026 Ablehnen
Demarai Gray Birmingham Aktiv 128 / 123 40% 1 20.12.2026 -
Majid Dejagah Gostaresh Foulad Abgelehnt 127 / 139 40% 3 19.12.2026 Ablehnen
Patrik Wålemark Lech Aktiv 131 / 136 40% 4 18.12.2026 -
Nikolas Dyhr Randers Aktiv 119 / 126 40% 3 18.12.2026 -
Mads Frøkjær Brondby Aktiv 114 / 104 40% 6 16.12.2026 -
Josh Windass Wrexham Aktiv 122 / 124 40% 1 14.12.2026 -
Malik Mothersille Stockport County Aktiv 121 / 115 40% 1 12.12.2026 -
Teboho Mokoena Mamelodi Sundowns Abgelehnt 131 / 138 40% 1 07.12.2026 Mehr Infos nötig
Marcelino Moreno Lanús Aktiv 123 / 145 40% 1 06.12.2026 -
Myles Peart-Harris Plymouth Argyle Aktiv 103 / 114 40% 1 04.12.2026 -
Mohamed Elyounoussi FC Copenhagen Aktiv 143 / 136 40% 3 03.12.2026 -
Erik Botheim Malmo FF Aktiv 137 / 117 40% 1 27.11.2026 -
Jens Petter Hauge Bodo/Glimt Aktiv 147 / 140 40% 3 21.11.2026 -
Santiago Montiel Independiente Aktiv 116 / 117 40% 1 21.11.2026 -
Emil Ceïde Rosenborg Aktiv 123 / 115 40% 1 21.11.2026 -
Alexis Cuello San Lorenzo Aktiv 124 / 131 40% 1 20.11.2026 -
Birger Meling FC Copenhagen Aktiv 111 / 120 40% 1 17.11.2026 -
Conrad Wallem Valerenga Aktiv 131 / 137 40% 2 11.11.2026 -
Bongokuhle Hlongwane Minnesota United FC Aktiv 117 / 129 40% 1 10.11.2026 -
Ammar Ramadan DAC Dunajska Streda Aktiv 116 / 115 40% 2 05.11.2026 -
Kristian Arnstad AGF Aktiv 130 / 118 40% 3 01.11.2026 -
Gift Links AGF Aktiv 118 / 139 40% 2 01.11.2026 -
Fernando Valenzuela Queretaro Aktiv 129 / 111 40% 1 29.10.2026 -
Alfredo Garcia La Equidad Aktiv 154 / 157 40% 4 28.10.2026 -
Jonathan Bamba Chicago Fire Aktiv 127 / 142 40% 2 25.10.2026 -
Marcelo Allende Mamelodi Sundowns Aktiv 139 / 133 40% 2 24.10.2026 -
Magnus Mattsson FC Copenhagen Aktiv 131 / 129 40% 1 24.10.2026 -
Rasmus Carstensen AGF Aktiv 126 / 134 40% 1 23.10.2026 -
Franco Cristaldo Talleres Aktiv 115 / 135 40% 1 22.10.2026 -
Duncan McGuire Houston Dynamo Aktiv 120 / 135 40% 1 20.10.2026 -
Marko Brest Olimpija Ljubljana Aktiv 118 / 125 40% 1 18.10.2026 -
Helinho Toluca Aktiv 125 / 127 40% 1 17.10.2026 -
Ibrahim Adel FC Nordsjaelland Aktiv 135 / 129 40% 1 17.10.2026 -
Ola Brynhildsen Bodo/Glimt Aktiv 121 / 115 40% 3 16.10.2026 -
Myrto Uzuni Austin FC Aktiv 146 / 116 40% 1 16.10.2026 -
Denis Bouanga Los Angeles Football Club Aktiv 125 / 121 40% 2 14.10.2026 -
Kein Sato FC Tokyo Aktiv 147 / 132 40% 2 13.10.2026 -
Fiete Arp OB Aktiv 137 / 117 40% 2 13.10.2026 -
Quinn Sullivan Philadelphia Union Aktiv 113 / 109 40% 2 12.10.2026 -
Jack Harrison New England Revolution Aktiv 121 / 120 40% 3 12.10.2026 -
Stijn Spierings Real Salt Lake Aktiv 122 / 137 40% 1 06.10.2026 -
Diego Luna Real Salt Lake Aktiv 118 / 117 40% 1 04.10.2026 -
Cole Bassett Portland Timbers Aktiv 106 / 131 40% 1 04.10.2026 -
Fernando Gorriarán Tigres Aktiv 142 / 132 40% 1 30.09.2026 -
Tobias Bech AGF Aktiv 116 / 133 40% 1 29.09.2026 -
Bartosz Slisz Brondby Aktiv 114 / 131 40% 1 22.09.2026 -
Telasco Segovia Inter Miami CF Aktiv 137 / 136 40% 1 19.09.2026 -
Malte Amundsen Columbus Crew Aktiv 124 / 134 40% 2 18.09.2026 -
Pep Biel Charlotte Football Club Aktiv 135 / 116 40% 1 13.09.2026 -
Edison Flores Aalborg Aktiv 126 / 132 40% 1 10.09.2026 -
Aljoša Matko Ujpest Aktiv 120 / 110 40% 1 10.09.2026 -
David Da Costa Portland Timbers Aktiv 125 / 134 40% 1 09.09.2026 -
Brandon Servania DC United Aktiv 122 / 106 40% 1 09.09.2026 -
Herman Johansson FC Dallas Aktiv 134 / 142 40% 1 07.09.2026 -
Wessel Dammers Randers Aktiv 126 / 130 40% 1 06.09.2026 -
Joao Ortiz Portland Timbers Aktiv 129 / 129 40% 1 03.09.2026 -
Shaq Moore FC Dallas Aktiv 124 / 137 40% 1 01.09.2026 -
Ismahila Ouédraogo OB Aktiv 109 / 125 40% 1 01.09.2026 -
Sam Adekugbe Vancouver Whitecaps Aktiv 125 / 133 40% 1 31.08.2026 -
Marcus Ingvartsen San Diego Football Club Aktiv 127 / 137 40% 1 31.08.2026 -
Julius Berthel Askou OB Aktiv 111 / 108 58% 1 24.08.2026 Befürworten
Alasana Yirajang Slovan Bratislava Aktiv 102 / 126 40% 1 11.08.2026 -
Víctor Dávila Club America Aktiv 128 / 140 40% 1 01.08.2026 -